createdAt,value
2022-12-17T00:01:30.898Z,17.98
2022-12-17T00:04:39.977Z,16.48
2022-12-17T00:07:48.983Z,17.35
2022-12-17T00:10:57.931Z,16.27
2022-12-17T00:14:07.033Z,16.30
2022-12-17T00:17:15.949Z,17.30
2022-12-17T00:20:28.557Z,16.70
2022-12-17T00:23:37.769Z,17.20
2022-12-17T00:26:46.760Z,16.52
2022-12-17T00:29:55.946Z,15.27
2022-12-17T00:33:05.487Z,16.25
2022-12-17T00:36:14.671Z,17.52
2022-12-17T00:39:23.613Z,17.23
2022-12-17T00:42:32.648Z,17.13
2022-12-17T00:45:41.506Z,17.38
2022-12-17T00:48:50.426Z,17.38
2022-12-17T00:51:59.207Z,16.83
2022-12-17T00:55:08.041Z,16.15
2022-12-17T00:58:16.734Z,17.98
2022-12-17T01:01:25.661Z,16.85
2022-12-17T01:04:34.440Z,17.33
2022-12-17T01:07:43.376Z,16.20
2022-12-17T01:10:52.703Z,16.58
2022-12-17T01:14:01.642Z,16.80
2022-12-17T01:17:11.045Z,16.55
2022-12-17T01:20:22.253Z,17.63
2022-12-17T01:23:31.609Z,16.13
2022-12-17T01:26:43.800Z,16.63
2022-12-17T01:29:52.883Z,17.45
2022-12-17T01:33:02.109Z,16.88
2022-12-17T01:36:15.739Z,17.58
2022-12-17T01:39:24.691Z,16.83
2022-12-17T01:42:33.332Z,16.80
2022-12-17T01:45:42.223Z,17.65
2022-12-17T01:49:05.254Z,17.00
2022-12-17T01:52:15.441Z,17.00
2022-12-17T01:55:25.714Z,17.88
2022-12-17T01:58:35.560Z,17.20
2022-12-17T02:01:44.707Z,16.30
2022-12-17T02:04:53.977Z,17.55
2022-12-17T02:08:24.676Z,17.65
2022-12-17T02:11:47.807Z,15.80
2022-12-17T02:15:36.345Z,12.63
2022-12-17T02:18:55.432Z,15.27
2022-12-17T02:22:12.975Z,14.90
2022-12-17T02:25:31.828Z,15.40
2022-12-17T02:28:40.666Z,14.95
2022-12-17T02:31:50.485Z,16.48
2022-12-17T02:35:04.008Z,16.77
2022-12-17T02:38:13.518Z,15.95
2022-12-17T02:41:25.451Z,17.08
2022-12-17T02:44:38.046Z,17.73
2022-12-17T02:47:48.344Z,18.65
2022-12-17T02:50:58.048Z,18.10
2022-12-17T02:54:12.303Z,21.45
2022-12-17T02:57:21.389Z,21.17
2022-12-17T03:00:30.668Z,19.13
2022-12-17T03:03:44.922Z,20.17
2022-12-17T03:06:56.243Z,17.63
2022-12-17T03:10:05.194Z,18.00
2022-12-17T03:13:15.726Z,16.45
2022-12-17T03:16:35.642Z,16.33
2022-12-17T03:19:46.256Z,18.05
2022-12-17T03:22:55.429Z,17.48
2022-12-17T03:26:04.378Z,21.45
2022-12-17T03:29:13.431Z,21.08
2022-12-17T03:32:22.084Z,21.92
2022-12-17T03:35:31.068Z,23.95
2022-12-17T03:38:40.473Z,23.60
2022-12-17T03:41:49.206Z,24.67
2022-12-17T03:44:57.975Z,23.17
2022-12-17T03:48:07.006Z,21.50
2022-12-17T03:51:16.731Z,20.92
2022-12-17T03:54:25.697Z,22.27
2022-12-17T03:57:34.917Z,19.08
2022-12-17T04:00:43.824Z,20.75
2022-12-17T04:03:52.777Z,21.40
2022-12-17T04:07:01.642Z,19.58
2022-12-17T04:10:10.755Z,21.40
2022-12-17T04:13:19.969Z,21.65
2022-12-17T04:16:28.938Z,22.20
2022-12-17T04:19:37.907Z,22.70
2022-12-17T04:22:46.796Z,23.05
2022-12-17T04:25:55.889Z,20.75
2022-12-17T04:29:05.823Z,21.52
2022-12-17T04:32:33.647Z,21.02
2022-12-17T04:35:43.695Z,22.63
2022-12-17T04:38:52.512Z,21.60
2022-12-17T04:42:01.279Z,22.88
2022-12-17T04:45:10.270Z,22.92
2022-12-17T04:48:24.765Z,22.63
2022-12-17T04:51:33.464Z,23.80
2022-12-17T04:54:42.071Z,20.88
2022-12-17T04:57:50.856Z,22.80
2022-12-17T05:00:59.606Z,21.52
2022-12-17T05:04:08.328Z,20.88
2022-12-17T05:07:17.049Z,24.50
2022-12-17T05:10:26.652Z,23.38
2022-12-17T05:13:36.406Z,22.95
2022-12-17T05:16:45.305Z,23.75
2022-12-17T05:19:54.492Z,23.02
2022-12-17T05:23:03.380Z,24.85
2022-12-17T05:26:22.279Z,23.83
2022-12-17T05:29:32.092Z,23.48
2022-12-17T05:32:40.979Z,24.30
2022-12-17T05:35:49.647Z,24.67
2022-12-17T05:38:58.492Z,21.10
2022-12-17T05:42:07.293Z,23.58
2022-12-17T05:45:16.082Z,23.10
2022-12-17T05:48:24.944Z,25.10
2022-12-17T05:51:38.488Z,24.85
2022-12-17T05:54:47.968Z,25.00
2022-12-17T05:57:56.944Z,26.23
2022-12-17T06:01:05.759Z,26.50
2022-12-17T06:04:14.418Z,26.45
2022-12-17T06:07:23.134Z,25.73
2022-12-17T06:10:31.901Z,27.67
2022-12-17T06:13:40.702Z,29.13
2022-12-17T06:16:49.737Z,28.55
2022-12-17T06:19:58.736Z,27.10
2022-12-17T06:23:18.093Z,29.92
2022-12-17T06:26:26.854Z,27.88
2022-12-17T06:29:35.930Z,28.35
2022-12-17T06:32:44.975Z,28.85
2022-12-17T06:35:53.743Z,30.25
2022-12-17T06:39:03.136Z,29.55
2022-12-17T06:42:11.996Z,29.15
2022-12-17T06:45:20.767Z,31.83
2022-12-17T06:48:29.515Z,27.80
2022-12-17T06:51:38.151Z,29.55
2022-12-17T06:54:48.413Z,30.33
2022-12-17T06:57:57.271Z,30.55
2022-12-17T07:01:06.293Z,29.55
2022-12-17T07:04:15.121Z,29.00
2022-12-17T07:07:23.950Z,30.45
2022-12-17T07:10:32.933Z,32.22
2022-12-17T07:13:41.960Z,29.88
2022-12-17T07:16:50.881Z,29.65
2022-12-17T07:19:59.467Z,30.83
2022-12-17T07:23:13.748Z,31.95
2022-12-17T07:26:22.706Z,32.13
2022-12-17T07:29:31.944Z,38.08
2022-12-17T07:32:41.028Z,34.03
2022-12-17T07:35:49.914Z,32.22
2022-12-17T07:38:59.640Z,33.35
2022-12-17T07:42:08.221Z,32.53
2022-12-17T07:45:16.881Z,30.52
2022-12-17T07:48:26.255Z,33.38
2022-12-17T07:51:35.307Z,33.05
2022-12-17T07:54:44.254Z,34.22
2022-12-17T07:57:56.537Z,34.90
2022-12-17T08:01:05.511Z,38.97
2022-12-17T08:04:14.883Z,35.28
2022-12-17T08:07:24.379Z,32.88
2022-12-17T08:10:33.272Z,35.25
2022-12-17T08:13:42.064Z,40.75
2022-12-17T08:16:50.916Z,39.80
2022-12-17T08:20:00.010Z,39.78
2022-12-17T08:23:09.009Z,32.83
2022-12-17T08:26:17.952Z,33.88
2022-12-17T08:29:26.974Z,31.85
2022-12-17T08:32:35.944Z,31.40
2022-12-17T08:35:44.669Z,29.85
2022-12-17T08:38:53.691Z,29.73
2022-12-17T08:42:04.435Z,29.10
2022-12-17T08:45:13.937Z,31.00
2022-12-17T08:48:25.349Z,29.40
2022-12-17T08:51:34.189Z,28.83
2022-12-17T08:54:43.402Z,29.10
2022-12-17T08:58:00.521Z,30.83
2022-12-17T09:01:09.553Z,28.67
2022-12-17T09:04:18.721Z,31.08
2022-12-17T09:07:27.529Z,27.85
2022-12-17T09:10:36.507Z,31.25
2022-12-17T09:13:45.595Z,28.30
2022-12-17T09:16:54.365Z,29.88
2022-12-17T09:20:03.194Z,27.40
2022-12-17T09:23:12.212Z,28.80
2022-12-17T09:26:21.059Z,28.85
2022-12-17T09:29:30.104Z,27.55
2022-12-17T09:32:39.185Z,30.15
2022-12-17T09:35:48.425Z,27.42
2022-12-17T09:38:57.475Z,28.15
2022-12-17T09:42:19.433Z,26.65
2022-12-17T09:45:41.229Z,29.05
2022-12-17T09:49:01.835Z,25.67
2022-12-17T09:52:10.762Z,27.95
2022-12-17T09:55:19.595Z,27.20
2022-12-17T09:58:40.776Z,28.45
2022-12-17T10:01:53.622Z,27.45
2022-12-17T10:05:04.708Z,28.27
2022-12-17T10:08:18.150Z,29.67
2022-12-17T10:11:41.934Z,26.90
2022-12-17T10:14:50.757Z,23.75
2022-12-17T10:17:59.700Z,27.17
2022-12-17T10:21:25.020Z,26.27
2022-12-17T10:24:33.801Z,27.48
2022-12-17T10:27:42.641Z,27.02
2022-12-17T10:30:51.762Z,27.50
2022-12-17T10:34:01.071Z,27.63
2022-12-17T10:37:11.898Z,28.35
2022-12-17T10:40:23.646Z,27.75
2022-12-17T10:43:46.403Z,30.15
2022-12-17T10:46:55.564Z,29.67
2022-12-17T10:50:14.827Z,30.92
2022-12-17T10:53:36.642Z,30.33
2022-12-17T10:56:46.315Z,29.27
2022-12-17T10:59:57.822Z,30.15
2022-12-17T11:03:07.529Z,27.02
2022-12-17T11:06:16.649Z,28.55
2022-12-17T11:09:42.755Z,28.45
2022-12-17T11:13:02.813Z,27.92
2022-12-17T11:16:14.581Z,26.30
2022-12-17T11:19:44.043Z,29.73
2022-12-17T11:23:09.223Z,28.67
2022-12-17T11:26:34.793Z,28.48
2022-12-17T11:29:43.500Z,24.92
2022-12-17T11:33:27.633Z,26.52
2022-12-17T11:36:56.259Z,27.40
2022-12-17T11:40:19.252Z,29.23
2022-12-17T11:43:38.584Z,28.30
2022-12-17T11:46:50.021Z,27.65
2022-12-17T11:50:14.129Z,27.67
2022-12-17T11:53:34.071Z,29.13
2022-12-17T11:56:49.325Z,28.75
2022-12-17T12:00:14.922Z,28.90
2022-12-17T12:03:45.223Z,27.70
2022-12-17T12:07:13.956Z,27.05
2022-12-17T12:10:36.866Z,27.67
2022-12-17T12:14:12.303Z,27.38
2022-12-17T12:17:51.035Z,27.33
2022-12-17T12:21:18.209Z,28.70
2022-12-17T12:24:34.694Z,26.95
2022-12-17T12:27:58.697Z,27.85
2022-12-17T12:31:44.983Z,27.60
2022-12-17T12:35:07.270Z,28.27
2022-12-17T12:38:16.040Z,26.42
2022-12-17T12:41:38.117Z,28.45
2022-12-17T12:45:25.155Z,29.77
2022-12-17T12:49:01.373Z,26.75
2022-12-17T12:52:12.186Z,27.60
2022-12-17T12:55:20.999Z,29.17
2022-12-17T12:58:46.249Z,29.55
2022-12-17T13:02:13.414Z,29.73
2022-12-17T13:05:23.173Z,27.70
2022-12-17T13:08:13.199Z,28.67
2022-12-17T13:11:12.580Z,29.15
2022-12-17T13:14:10.719Z,28.75
2022-12-17T13:17:16.460Z,29.35
2022-12-17T13:20:29.929Z,30.75
2022-12-17T13:23:30.085Z,28.57
2022-12-17T13:26:41.734Z,25.48
2022-12-17T13:29:34.629Z,29.25
2022-12-17T13:32:43.076Z,29.80
2022-12-17T13:35:41.884Z,29.80
2022-12-17T13:38:45.691Z,32.20
2022-12-17T13:41:38.601Z,27.00
2022-12-17T13:44:40.170Z,29.17
2022-12-17T13:47:38.986Z,32.00
2022-12-17T13:50:35.539Z,28.27
2022-12-17T13:53:27.665Z,27.35
2022-12-17T13:56:23.452Z,28.27
2022-12-17T13:59:32.016Z,28.05
2022-12-17T14:02:34.110Z,27.17
2022-12-17T14:05:34.004Z,29.48
2022-12-17T14:08:29.008Z,28.42
2022-12-17T14:11:38.646Z,29.27
2022-12-17T14:14:34.626Z,27.35
2022-12-17T14:17:35.722Z,26.35
2022-12-17T14:20:30.180Z,27.48
2022-12-17T14:23:29.053Z,27.80
2022-12-17T14:26:21.517Z,28.98
2022-12-17T14:29:14.807Z,26.98
2022-12-17T14:32:23.839Z,26.48
2022-12-17T14:35:29.349Z,24.80
2022-12-17T14:38:48.242Z,26.40
2022-12-17T14:41:55.833Z,29.20
2022-12-17T14:44:57.406Z,27.02
2022-12-17T14:48:01.504Z,26.77
2022-12-17T14:50:56.256Z,27.20
2022-12-17T14:53:46.536Z,26.80
2022-12-17T14:56:36.818Z,26.75
2022-12-17T14:59:34.418Z,27.75
2022-12-17T15:02:31.102Z,25.48
2022-12-17T15:05:21.916Z,25.10
2022-12-17T15:08:12.306Z,26.15
2022-12-17T15:11:03.136Z,24.48
2022-12-17T15:13:56.608Z,26.48
2022-12-17T15:16:47.696Z,23.73
2022-12-17T15:19:38.096Z,26.80
2022-12-17T15:22:28.353Z,24.48
2022-12-17T15:25:20.048Z,23.50
2022-12-17T15:28:11.369Z,24.08
2022-12-17T15:31:02.164Z,28.10
2022-12-17T15:33:52.459Z,25.48
2022-12-17T15:36:42.657Z,26.42
2022-12-17T15:39:33.200Z,25.35
2022-12-17T15:42:42.393Z,24.63
2022-12-17T15:45:35.897Z,26.00
2022-12-17T15:51:19.855Z,23.58
2022-12-17T15:54:10.320Z,25.90
2022-12-17T15:57:00.341Z,25.75
2022-12-17T15:59:51.737Z,24.67
2022-12-17T16:02:41.931Z,26.83
2022-12-17T16:05:32.042Z,25.67
2022-12-17T16:08:22.393Z,27.10
2022-12-17T16:11:14.844Z,27.38
2022-12-17T16:14:05.488Z,26.17
2022-12-17T16:16:55.468Z,25.83
2022-12-17T16:19:46.012Z,25.35
2022-12-17T16:22:37.467Z,26.08
2022-12-17T16:25:28.228Z,27.27
2022-12-17T16:28:18.434Z,24.83
2022-12-17T16:31:12.276Z,25.67
2022-12-17T16:34:02.514Z,25.42
2022-12-17T16:36:53.149Z,25.70
2022-12-17T16:39:43.595Z,27.80
2022-12-17T16:42:34.018Z,27.60
2022-12-17T16:45:23.994Z,27.95
2022-12-17T16:48:13.951Z,28.35
2022-12-17T16:51:18.997Z,27.83
2022-12-17T16:54:18.430Z,28.55
2022-12-17T16:57:08.730Z,29.35
2022-12-17T16:59:58.725Z,27.38
2022-12-17T17:02:53.191Z,29.63
2022-12-17T17:05:43.561Z,29.00
2022-12-17T17:08:39.451Z,28.77
2022-12-17T17:11:30.063Z,28.63
2022-12-17T17:14:20.462Z,26.48
2022-12-17T17:17:10.952Z,27.70
2022-12-17T17:20:00.940Z,27.85
2022-12-17T17:22:51.582Z,28.80
2022-12-17T17:25:57.466Z,28.27
2022-12-17T17:28:49.003Z,28.73
2022-12-17T17:32:09.335Z,28.33
2022-12-17T17:34:49.746Z,26.80
2022-12-17T17:37:39.749Z,28.00
2022-12-17T17:40:29.603Z,28.17
2022-12-17T17:43:19.470Z,28.25
2022-12-17T17:46:13.349Z,30.33
2022-12-17T17:49:05.465Z,30.00
2022-12-17T17:52:11.569Z,32.03
2022-12-17T17:55:02.619Z,27.83
2022-12-17T17:57:52.843Z,27.52
2022-12-17T18:00:43.291Z,29.67
2022-12-17T18:03:33.841Z,28.35
2022-12-17T18:06:23.917Z,28.17
2022-12-17T18:09:14.370Z,28.20
2022-12-17T18:12:24.883Z,27.88
2022-12-17T18:15:18.014Z,28.83
2022-12-17T18:18:14.321Z,29.10
2022-12-17T18:21:07.491Z,28.92
2022-12-17T18:24:02.822Z,29.00
2022-12-17T18:26:53.375Z,27.67
2022-12-17T18:29:43.702Z,27.55
2022-12-17T18:32:33.903Z,29.98
2022-12-17T18:35:23.936Z,29.27
2022-12-17T18:38:14.573Z,34.08
2022-12-17T18:41:26.488Z,35.65
2022-12-17T18:44:18.578Z,31.98
2022-12-17T18:47:10.323Z,33.22
2022-12-17T18:50:00.381Z,31.38
2022-12-17T18:52:50.220Z,33.72
2022-12-17T18:55:40.683Z,33.80
2022-12-17T18:58:31.113Z,33.60
2022-12-17T19:01:27.118Z,36.58
2022-12-17T19:04:19.712Z,35.92
2022-12-17T19:07:10.644Z,34.53
2022-12-17T19:10:02.329Z,32.97
2022-12-17T19:12:52.532Z,35.95
2022-12-17T19:15:42.587Z,33.30
2022-12-17T19:18:33.479Z,32.85
2022-12-17T19:21:24.297Z,33.70
2022-12-17T19:24:16.966Z,30.73
2022-12-17T19:27:07.206Z,33.42
2022-12-17T19:29:57.494Z,32.90
2022-12-17T19:32:47.987Z,34.42
2022-12-17T19:35:38.442Z,34.97
2022-12-17T19:38:28.505Z,34.42
2022-12-17T19:41:19.455Z,35.53
2022-12-17T19:44:13.530Z,35.00
2022-12-17T19:47:03.701Z,35.28
2022-12-17T19:49:53.791Z,33.83
2022-12-17T19:52:43.670Z,34.70
2022-12-17T19:55:33.645Z,36.80
2022-12-17T19:58:24.433Z,36.05
2022-12-17T20:01:20.158Z,33.95
2022-12-17T20:04:12.467Z,35.92
2022-12-17T20:07:02.650Z,37.30
2022-12-17T20:09:53.789Z,36.35
2022-12-17T20:12:44.041Z,36.00
2022-12-17T20:15:34.446Z,36.20
2022-12-17T20:18:24.437Z,35.45
2022-12-17T20:21:14.532Z,37.42
2022-12-17T20:24:05.031Z,36.38
2022-12-17T20:26:55.420Z,36.60
2022-12-17T20:29:45.457Z,44.78
2022-12-17T20:32:35.530Z,36.20
2022-12-17T20:35:25.780Z,37.65
2022-12-17T20:38:15.973Z,36.47
2022-12-17T20:41:14.581Z,38.28
2022-12-17T20:44:07.992Z,41.58
2022-12-17T20:46:58.347Z,37.40
2022-12-17T20:49:48.681Z,38.03
2022-12-17T20:52:38.931Z,38.72
2022-12-17T20:55:31.262Z,36.55
2022-12-17T20:58:21.759Z,34.20
2022-12-17T21:01:20.940Z,35.45
2022-12-17T21:04:13.549Z,33.58
2022-12-17T21:07:03.837Z,33.83
2022-12-17T21:09:53.949Z,34.30
2022-12-17T21:13:02.588Z,33.83
2022-12-17T21:15:54.407Z,33.97
2022-12-17T21:18:45.084Z,34.28
2022-12-17T21:21:37.192Z,38.38
2022-12-17T21:24:27.372Z,36.13
2022-12-17T21:27:17.574Z,38.33
2022-12-17T21:30:11.172Z,34.53
2022-12-17T21:33:03.830Z,34.45
2022-12-17T21:36:07.607Z,36.15
2022-12-17T21:38:59.506Z,34.22
2022-12-17T21:42:08.415Z,35.78
2022-12-17T21:44:58.488Z,36.20
2022-12-17T21:47:48.736Z,34.13
2022-12-17T21:50:45.627Z,33.40
2022-12-17T21:53:37.839Z,33.10
2022-12-17T21:56:28.581Z,34.17
2022-12-17T21:59:18.770Z,35.35
2022-12-17T22:02:10.621Z,36.58
2022-12-17T22:05:00.993Z,41.43
2022-12-17T22:07:52.457Z,37.67
2022-12-17T22:10:48.217Z,37.33
2022-12-17T22:14:06.828Z,36.65
2022-12-17T22:16:58.493Z,35.20
2022-12-17T22:19:48.935Z,34.60
2022-12-17T22:22:38.803Z,36.30
2022-12-17T22:25:29.236Z,36.28
2022-12-17T22:28:19.186Z,35.88
2022-12-17T22:31:31.600Z,33.83
2022-12-17T22:35:18.461Z,37.13
2022-12-17T22:37:32.671Z,37.58
2022-12-17T22:44:32.292Z,37.25
2022-12-17T22:44:51.320Z,36.45
2022-12-17T22:47:05.783Z,36.20
2022-12-17T22:49:55.957Z,36.33
2022-12-17T22:52:46.963Z,37.80
2022-12-17T22:55:37.337Z,37.58
2022-12-17T22:58:28.264Z,34.85
2022-12-17T23:01:22.772Z,36.40
2022-12-17T23:04:15.973Z,34.00
2022-12-17T23:07:06.512Z,33.10
2022-12-17T23:09:56.414Z,35.70
2022-12-17T23:12:54.357Z,34.67
2022-12-17T23:15:44.460Z,34.72
2022-12-17T23:18:35.051Z,35.53
2022-12-17T23:21:25.959Z,35.42
2022-12-17T23:24:16.249Z,34.75
2022-12-17T23:27:06.695Z,33.53
2022-12-17T23:29:56.537Z,32.65
2022-12-17T23:32:47.016Z,35.25
2022-12-17T23:35:37.003Z,35.80
2022-12-17T23:38:26.851Z,38.45
2022-12-17T23:41:22.646Z,37.53
2022-12-17T23:44:12.684Z,35.50
2022-12-17T23:47:02.630Z,35.40
2022-12-17T23:49:53.066Z,35.00
2022-12-17T23:52:43.037Z,31.85
2022-12-17T23:55:33.170Z,35.70
2022-12-17T23:58:23.379Z,33.28
